createdAt,value
2019-03-04T00:05:37.681Z,1.20
2019-03-04T00:08:26.383Z,1.00
2019-03-04T00:11:29.567Z,1.30
2019-03-04T00:14:30.229Z,1.37
2019-03-04T00:17:30.798Z,1.30
2019-03-04T00:20:31.076Z,1.40
2019-03-04T00:23:32.394Z,1.43
2019-03-04T00:26:33.216Z,1.10
2019-03-04T00:29:33.890Z,1.17
2019-03-04T00:32:34.739Z,1.43
2019-03-04T00:35:35.135Z,1.47
2019-03-04T00:38:35.719Z,2.03
2019-03-04T00:41:36.401Z,1.30
2019-03-04T00:44:37.112Z,1.70
2019-03-04T00:47:37.629Z,1.50
2019-03-04T00:50:38.130Z,1.37
2019-03-04T00:53:39.206Z,1.50
2019-03-04T00:56:40.257Z,1.10
2019-03-04T00:59:28.906Z,1.10
2019-03-04T01:02:36.747Z,1.40
2019-03-04T01:05:37.231Z,1.50
2019-03-04T01:08:37.506Z,1.40
2019-03-04T01:11:38.101Z,1.40
2019-03-04T01:14:38.429Z,1.30
2019-03-04T01:17:39.623Z,1.20
2019-03-04T01:20:40.055Z,1.17
2019-03-04T01:23:40.606Z,1.73
2019-03-04T01:26:41.040Z,1.30
2019-03-04T01:29:41.503Z,1.40
2019-03-04T01:32:42.757Z,1.00
2019-03-04T01:35:31.319Z,1.33
2019-03-04T01:38:39.171Z,1.20
2019-03-04T01:41:39.827Z,1.17
2019-03-04T01:44:40.431Z,1.40
2019-03-04T01:47:40.777Z,1.47
2019-03-04T01:50:41.251Z,0.90
2019-03-04T01:53:41.719Z,0.90
2019-03-04T01:56:43.039Z,0.90
2019-03-04T01:59:43.280Z,1.00
2019-03-04T02:02:43.643Z,0.87
2019-03-04T02:05:44.028Z,0.90
2019-03-04T02:08:45.275Z,1.70
2019-03-04T02:11:45.898Z,1.53
2019-03-04T02:14:46.507Z,1.10
2019-03-04T02:17:35.163Z,1.80
2019-03-04T02:23:41.988Z,0.97
2019-03-04T02:26:42.839Z,1.00
2019-03-04T02:29:43.198Z,1.20
2019-03-04T02:32:43.558Z,0.93
2019-03-04T02:35:44.071Z,0.80
2019-03-04T02:38:44.356Z,1.67
2019-03-04T02:41:45.635Z,0.90
2019-03-04T02:44:46.817Z,1.03
2019-03-04T02:47:47.301Z,0.90
2019-03-04T02:50:48.442Z,0.73
2019-03-04T02:53:49.094Z,0.90
2019-03-04T02:56:50.191Z,0.80
2019-03-04T02:59:51.112Z,0.90
2019-03-04T03:02:39.734Z,1.00
2019-03-04T03:08:41.662Z,0.87
2019-03-04T03:11:49.598Z,0.90
2019-03-04T03:14:57.540Z,0.73
2019-03-04T03:17:58.738Z,0.70
2019-03-04T03:20:59.122Z,0.70
2019-03-04T03:24:00.271Z,0.80
2019-03-04T03:27:00.630Z,0.77
2019-03-04T03:30:01.198Z,1.10
2019-03-04T03:33:02.464Z,1.10
2019-03-04T03:36:03.354Z,1.10
2019-03-04T03:39:04.386Z,0.67
2019-03-04T03:42:04.960Z,0.80
2019-03-04T03:45:06.265Z,0.80
2019-03-04T03:48:06.800Z,0.83
2019-03-04T03:51:07.284Z,1.23
2019-03-04T03:54:08.288Z,0.90
2019-03-04T03:57:09.186Z,1.03
2019-03-04T04:00:09.589Z,0.90
2019-03-04T04:03:09.865Z,0.90
2019-03-04T04:06:11.115Z,0.80
2019-03-04T04:09:12.398Z,0.90
2019-03-04T04:12:13.338Z,1.50
2019-03-04T04:15:13.639Z,0.97
2019-03-04T04:18:13.955Z,1.00
2019-03-04T04:21:14.399Z,0.93
2019-03-04T04:24:15.693Z,0.93
2019-03-04T04:27:16.060Z,0.80
2019-03-04T04:30:20.756Z,0.90
2019-03-04T04:33:21.128Z,0.80
2019-03-04T04:36:21.499Z,1.07
2019-03-04T04:39:21.837Z,1.07
2019-03-04T04:42:22.576Z,1.07
2019-03-04T04:45:22.916Z,0.80
2019-03-04T04:48:23.784Z,0.80
2019-03-04T04:51:24.045Z,1.10
2019-03-04T04:54:24.351Z,1.03
2019-03-04T04:57:24.980Z,1.30
2019-03-04T05:00:25.473Z,1.10
2019-03-04T05:03:26.713Z,1.27
2019-03-04T05:06:27.901Z,1.30
2019-03-04T05:09:28.588Z,1.00
2019-03-04T05:12:28.870Z,1.20
2019-03-04T05:15:29.785Z,1.00
2019-03-04T05:18:30.304Z,1.13
2019-03-04T05:21:30.729Z,1.20
2019-03-04T05:24:31.525Z,1.47
2019-03-04T05:27:31.832Z,1.20
2019-03-04T05:30:32.407Z,0.93
2019-03-04T05:33:32.746Z,1.30
2019-03-04T05:36:33.462Z,1.00
2019-03-04T05:39:34.003Z,2.03
2019-03-04T05:42:34.369Z,1.77
2019-03-04T05:45:34.814Z,1.20
2019-03-04T05:48:35.610Z,1.57
2019-03-04T05:51:36.093Z,2.50
2019-03-04T05:54:36.757Z,2.00
2019-03-04T05:57:37.466Z,1.93
2019-03-04T06:00:39.774Z,2.03
2019-03-04T06:03:40.633Z,1.23
2019-03-04T06:06:45.383Z,1.30
2019-03-04T06:09:46.513Z,3.50
2019-03-04T06:12:47.603Z,6.37
2019-03-04T06:15:48.354Z,7.70
2019-03-04T06:18:48.841Z,3.67
2019-03-04T06:21:49.485Z,3.57
2019-03-04T06:24:49.835Z,4.73
2019-03-04T06:27:50.569Z,4.27
2019-03-04T06:30:51.003Z,2.17
2019-03-04T06:33:51.482Z,1.93
2019-03-04T06:36:53.086Z,1.10
2019-03-04T06:39:54.514Z,1.10
2019-03-04T06:42:55.500Z,1.17
2019-03-04T06:45:56.201Z,1.60
2019-03-04T06:48:57.333Z,2.97
2019-03-04T06:51:58.024Z,2.13
2019-03-04T06:54:58.518Z,1.50
2019-03-04T06:57:59.079Z,1.47
2019-03-04T07:00:59.581Z,1.00
2019-03-04T07:04:00.251Z,2.13
2019-03-04T07:07:00.924Z,1.47
2019-03-04T07:10:01.345Z,1.40
2019-03-04T07:13:02.101Z,1.20
2019-03-04T07:16:02.720Z,1.40
2019-03-04T07:19:03.447Z,1.60
2019-03-04T07:22:04.500Z,1.30
2019-03-04T07:25:05.123Z,1.40
2019-03-04T07:28:05.810Z,1.60
2019-03-04T07:31:06.273Z,1.30
2019-03-04T07:34:06.698Z,2.27
2019-03-04T07:37:07.338Z,1.70
2019-03-04T07:40:07.892Z,3.70
2019-03-04T07:43:08.321Z,2.77
2019-03-04T07:46:08.641Z,1.53
2019-03-04T07:49:09.181Z,1.80
2019-03-04T07:52:09.902Z,1.67
2019-03-04T07:55:10.621Z,1.60
2019-03-04T07:58:11.072Z,2.13
2019-03-04T08:01:12.067Z,4.50
2019-03-04T08:04:12.569Z,1.70
2019-03-04T08:07:13.019Z,1.50
2019-03-04T08:10:13.357Z,1.77
2019-03-04T08:13:13.746Z,1.97
2019-03-04T08:16:14.542Z,5.53
2019-03-04T08:19:15.411Z,2.63
2019-03-04T08:22:16.200Z,2.10
2019-03-04T08:25:16.783Z,2.10
2019-03-04T08:28:17.283Z,1.80
2019-03-04T08:34:40.503Z,2.00
2019-03-04T08:37:41.310Z,1.90
2019-03-04T08:40:41.945Z,2.40
2019-03-04T08:43:42.630Z,2.27
2019-03-04T08:46:43.987Z,2.23
2019-03-04T08:49:44.293Z,2.17
2019-03-04T08:52:44.625Z,1.83
2019-03-04T08:55:45.499Z,1.93
2019-03-04T08:58:46.258Z,1.60
2019-03-04T09:01:46.537Z,1.90
2019-03-04T09:04:46.971Z,2.10
2019-03-04T09:07:47.421Z,1.93
2019-03-04T09:10:47.972Z,2.20
2019-03-04T09:13:48.680Z,2.30
2019-03-04T09:16:49.996Z,1.60
2019-03-04T09:19:50.466Z,1.50
2019-03-04T09:22:51.158Z,2.43
2019-03-04T09:25:51.444Z,1.50
2019-03-04T09:28:52.374Z,1.37
2019-03-04T09:31:52.931Z,0.67
2019-03-04T09:34:54.039Z,0.50
2019-03-04T09:37:54.367Z,0.90
2019-03-04T09:40:54.852Z,0.40
2019-03-04T09:43:56.258Z,1.60
2019-03-04T09:46:57.373Z,1.33
2019-03-04T09:49:57.847Z,0.47
2019-03-04T09:52:58.472Z,0.83
2019-03-04T09:55:59.514Z,0.97
2019-03-04T09:58:59.879Z,1.03
2019-03-04T10:02:00.181Z,0.80
2019-03-04T10:05:00.539Z,0.50
2019-03-04T10:08:00.847Z,0.60
2019-03-04T10:11:01.455Z,1.80
2019-03-04T10:14:01.888Z,0.70
2019-03-04T10:17:02.378Z,0.60
2019-03-04T10:20:02.958Z,0.87
2019-03-04T10:23:04.013Z,1.10
2019-03-04T10:26:04.467Z,0.90
2019-03-04T10:29:04.832Z,1.73
2019-03-04T10:32:05.232Z,1.20
2019-03-04T10:35:05.511Z,1.70
2019-03-04T10:38:06.379Z,0.80
2019-03-04T10:41:07.244Z,0.50
2019-03-04T10:44:08.469Z,0.60
2019-03-04T10:47:09.601Z,1.20
2019-03-04T10:50:09.903Z,1.07
2019-03-04T10:53:10.347Z,0.87
2019-03-04T10:56:11.575Z,1.37
2019-03-04T10:59:12.369Z,2.53
2019-03-04T11:02:13.034Z,1.80
2019-03-04T11:05:13.742Z,1.33
2019-03-04T11:08:14.953Z,2.33
2019-03-04T11:11:15.622Z,1.23
2019-03-04T11:14:16.632Z,1.23
2019-03-04T11:17:17.315Z,0.93
2019-03-04T11:20:17.982Z,2.73
2019-03-04T11:23:18.927Z,1.27
2019-03-04T11:26:20.165Z,3.60
2019-03-04T11:29:20.506Z,3.87
2019-03-04T11:32:21.681Z,3.27
2019-03-04T11:35:22.010Z,3.10
2019-03-04T11:38:22.624Z,2.73
2019-03-04T11:41:23.145Z,3.50
2019-03-04T11:44:23.622Z,4.07
2019-03-04T11:47:25.357Z,2.73
2019-03-04T11:50:26.580Z,5.97
2019-03-04T11:53:28.006Z,3.03
2019-03-04T11:56:28.578Z,3.27
2019-03-04T11:59:28.990Z,5.17
2019-03-04T12:02:38.625Z,4.20
2019-03-04T12:05:31.937Z,4.23
2019-03-04T12:08:32.212Z,4.30
2019-03-04T12:11:38.259Z,2.80
2019-03-04T12:14:35.638Z,2.93
2019-03-04T12:17:36.364Z,2.80
2019-03-04T12:20:36.954Z,3.40
2019-03-04T12:23:37.590Z,2.73
2019-03-04T12:26:26.420Z,3.83
2019-03-04T12:29:34.371Z,6.13
2019-03-04T12:32:34.786Z,5.13
2019-03-04T12:35:35.214Z,7.13
2019-03-04T12:38:35.647Z,6.60
2019-03-04T12:41:36.386Z,3.07
2019-03-04T12:44:36.899Z,4.07
2019-03-04T12:47:37.960Z,3.47
2019-03-04T12:50:38.325Z,2.60
2019-03-04T12:53:38.657Z,3.23
2019-03-04T12:56:39.444Z,4.37
2019-03-04T12:59:39.791Z,2.03
2019-03-04T13:02:40.206Z,2.13
2019-03-04T13:05:40.825Z,2.20
2019-03-04T13:08:29.756Z,4.43
2019-03-04T13:11:37.689Z,4.30
2019-03-04T13:14:38.594Z,2.27
2019-03-04T13:17:38.934Z,3.23
2019-03-04T13:20:39.356Z,3.73
2019-03-04T13:23:40.224Z,2.07
2019-03-04T13:26:40.773Z,2.27
2019-03-04T13:29:41.145Z,3.00
2019-03-04T13:32:41.948Z,2.97
2019-03-04T13:35:43.033Z,2.45
2019-03-04T13:38:32.230Z,3.17
2019-03-04T13:41:40.722Z,2.58
2019-03-04T13:44:41.990Z,3.25
2019-03-04T13:47:47.095Z,1.65
2019-03-04T13:50:48.558Z,2.52
2019-03-04T13:53:49.849Z,2.58
2019-03-04T13:56:51.430Z,2.00
2019-03-04T13:59:52.756Z,1.70
2019-03-04T14:02:54.144Z,1.67
2019-03-04T14:05:55.923Z,1.72
2019-03-04T14:08:57.314Z,1.70
2019-03-04T14:11:59.079Z,2.17
2019-03-04T14:15:00.729Z,2.52
2019-03-04T14:18:02.042Z,2.35
2019-03-04T14:21:03.362Z,7.30
2019-03-04T14:24:05.229Z,3.52
2019-03-04T14:27:08.026Z,1.62
2019-03-04T14:30:09.286Z,1.72
2019-03-04T14:33:11.007Z,2.70
2019-03-04T14:36:12.864Z,2.40
2019-03-04T14:39:14.521Z,2.70
2019-03-04T14:42:16.053Z,2.25
2019-03-04T14:45:17.717Z,4.00
2019-03-04T14:48:19.193Z,2.70
2019-03-04T14:51:21.001Z,3.08
2019-03-04T14:54:22.179Z,4.12
2019-03-04T14:57:23.153Z,2.35
2019-03-04T15:00:25.754Z,5.42
2019-03-04T15:03:27.466Z,5.22
2019-03-04T15:06:28.705Z,2.65
2019-03-04T15:09:30.438Z,2.35
2019-03-04T15:12:32.010Z,3.15
2019-03-04T15:15:33.550Z,2.10
2019-03-04T15:18:35.156Z,1.50
2019-03-04T15:21:36.416Z,2.80
2019-03-04T15:24:38.014Z,1.25
2019-03-04T15:27:41.795Z,1.20
2019-03-04T15:30:42.838Z,1.87
2019-03-04T15:33:44.364Z,2.17
2019-03-04T15:36:44.731Z,3.87
2019-03-04T15:39:45.336Z,2.13
2019-03-04T15:42:45.918Z,1.30
2019-03-04T15:45:47.952Z,0.90
2019-03-04T15:48:48.978Z,1.97
2019-03-04T15:51:49.508Z,1.60
2019-03-04T15:54:50.725Z,1.50
2019-03-04T15:57:51.167Z,3.20
2019-03-04T16:00:52.066Z,2.53
2019-03-04T16:03:52.820Z,0.67
2019-03-04T16:06:53.402Z,1.27
2019-03-04T16:09:54.576Z,1.43
2019-03-04T16:12:55.000Z,1.20
2019-03-04T16:15:55.643Z,2.93
2019-03-04T16:18:56.350Z,2.07
2019-03-04T16:21:45.249Z,1.43
2019-03-04T16:24:53.241Z,1.97
2019-03-04T16:27:54.381Z,3.87
2019-03-04T16:30:55.679Z,4.07
2019-03-04T16:33:55.974Z,2.60
2019-03-04T16:36:56.407Z,5.33
2019-03-04T16:39:57.107Z,5.43
2019-03-04T16:42:58.301Z,4.20
2019-03-04T16:48:54.320Z,5.73
2019-03-04T16:51:54.911Z,4.37
2019-03-04T16:54:57.265Z,6.27
2019-03-04T16:57:57.626Z,4.50
2019-03-04T17:00:58.232Z,6.33
2019-03-04T17:03:58.661Z,2.60
2019-03-04T17:06:47.388Z,4.17
2019-03-04T17:09:50.191Z,1.97
2019-03-04T17:12:50.516Z,3.13
2019-03-04T17:15:50.968Z,3.40
2019-03-04T17:18:51.357Z,2.23
2019-03-04T17:21:52.679Z,1.10
2019-03-04T17:24:53.089Z,1.70
2019-03-04T17:27:53.776Z,2.50
2019-03-04T17:30:54.604Z,1.37
2019-03-04T17:33:55.001Z,0.80
2019-03-04T17:36:56.162Z,0.30
2019-03-04T17:39:56.600Z,0.63
2019-03-04T17:42:56.890Z,0.67
2019-03-04T17:45:57.231Z,0.40
2019-03-04T17:48:58.047Z,0.30
2019-03-04T17:51:58.780Z,0.37
2019-03-04T17:54:59.079Z,0.60
2019-03-04T17:57:59.507Z,1.83
2019-03-04T18:00:59.851Z,1.17
2019-03-04T18:04:01.069Z,0.37
2019-03-04T18:07:01.681Z,1.50
2019-03-04T18:10:02.274Z,1.87
2019-03-04T18:13:02.651Z,1.37
2019-03-04T18:16:03.917Z,1.03
2019-03-04T18:22:19.595Z,1.63
2019-03-04T18:25:20.151Z,1.00
2019-03-04T18:28:20.748Z,1.13
2019-03-04T18:31:21.600Z,0.60
2019-03-04T18:34:22.078Z,0.70
2019-03-04T18:37:22.926Z,0.60
2019-03-04T18:40:23.442Z,0.47
2019-03-04T18:43:24.715Z,0.50
2019-03-04T18:46:25.509Z,0.30
2019-03-04T18:49:25.822Z,0.50
2019-03-04T18:52:26.468Z,0.70
2019-03-04T18:55:27.328Z,0.53
2019-03-04T18:58:27.947Z,1.53
2019-03-04T19:01:28.390Z,1.13
2019-03-04T19:04:28.891Z,0.57
2019-03-04T19:07:30.314Z,0.57
2019-03-04T19:10:30.961Z,0.83
2019-03-04T19:13:31.868Z,0.60
2019-03-04T19:16:32.973Z,0.50
2019-03-04T19:19:33.282Z,1.13
2019-03-04T19:22:33.836Z,0.67
2019-03-04T19:25:34.590Z,1.20
2019-03-04T19:28:34.961Z,1.80
2019-03-04T19:31:35.467Z,1.27
2019-03-04T19:34:35.729Z,0.70
2019-03-04T19:37:36.078Z,3.10
2019-03-04T19:40:36.588Z,0.73
2019-03-04T19:43:37.065Z,1.07
2019-03-04T19:46:37.975Z,1.07
2019-03-04T19:49:38.532Z,0.90
2019-03-04T19:52:38.988Z,1.07
2019-03-04T19:55:39.666Z,1.10
2019-03-04T19:58:39.972Z,1.00
2019-03-04T20:01:40.483Z,0.73
2019-03-04T20:04:41.035Z,0.73
2019-03-04T20:07:43.787Z,0.60
2019-03-04T20:10:43.796Z,0.50
2019-03-04T20:13:44.362Z,0.30
2019-03-04T20:16:45.375Z,0.30
2019-03-04T20:19:45.850Z,1.30
2019-03-04T20:22:46.836Z,1.10
2019-03-04T20:25:47.679Z,0.70
2019-03-04T20:28:47.985Z,0.63
2019-03-04T20:31:48.634Z,1.00
2019-03-04T20:34:49.318Z,0.80
2019-03-04T20:37:49.891Z,0.90
2019-03-04T20:40:50.432Z,1.37
2019-03-04T20:43:51.176Z,1.80
2019-03-04T20:46:52.089Z,1.10
2019-03-04T20:49:52.329Z,0.97
2019-03-04T20:52:52.938Z,0.73
2019-03-04T20:55:53.382Z,0.60
2019-03-04T20:58:53.791Z,0.40
2019-03-04T21:01:54.437Z,1.07
2019-03-04T21:04:55.308Z,0.57
2019-03-04T21:07:56.479Z,0.37
2019-03-04T21:10:56.823Z,1.10
2019-03-04T21:13:57.306Z,0.90
2019-03-04T21:16:57.785Z,0.50
2019-03-04T21:19:58.456Z,1.43
2019-03-04T21:22:59.141Z,0.73
2019-03-04T21:26:00.160Z,0.57
2019-03-04T21:29:00.651Z,1.23
2019-03-04T21:32:01.850Z,1.43
2019-03-04T21:35:02.391Z,0.40
2019-03-04T21:38:03.800Z,0.30
2019-03-04T21:41:04.484Z,0.50
2019-03-04T21:44:04.984Z,0.50
2019-03-04T21:47:05.837Z,1.30
2019-03-04T21:50:06.530Z,1.33
2019-03-04T21:53:06.832Z,1.60
2019-03-04T21:56:07.296Z,0.80
2019-03-04T21:59:07.578Z,1.63
2019-03-04T22:02:08.772Z,2.37
2019-03-04T22:05:09.245Z,1.20
2019-03-04T22:08:10.025Z,1.27
2019-03-04T22:11:10.616Z,3.10
2019-03-04T22:14:11.077Z,2.57
2019-03-04T22:17:11.624Z,2.70
2019-03-04T22:20:11.991Z,2.73
2019-03-04T22:23:12.363Z,1.63
2019-03-04T22:26:13.527Z,2.53
2019-03-04T22:29:13.786Z,2.67
2019-03-04T22:32:14.225Z,0.63
2019-03-04T22:35:16.997Z,1.17
2019-03-04T22:38:16.699Z,3.90
2019-03-04T22:41:17.366Z,3.87
2019-03-04T22:44:17.970Z,4.07
2019-03-04T22:47:18.779Z,3.27
2019-03-04T22:50:19.472Z,1.77
2019-03-04T22:53:20.197Z,1.80
2019-03-04T22:56:20.433Z,2.53
2019-03-04T22:59:21.123Z,4.13
2019-03-04T23:02:21.795Z,1.57
2019-03-04T23:05:22.265Z,3.03
2019-03-04T23:08:23.116Z,2.17
2019-03-04T23:11:23.413Z,3.50
2019-03-04T23:14:23.756Z,0.80
2019-03-04T23:17:24.083Z,4.63
2019-03-04T23:20:25.393Z,1.33
2019-03-04T23:23:26.562Z,7.10
2019-03-04T23:26:27.268Z,2.37
2019-03-04T23:29:35.190Z,1.50
2019-03-04T23:32:43.052Z,2.70
2019-03-04T23:35:43.453Z,3.90
2019-03-04T23:38:43.747Z,3.00
2019-03-04T23:41:44.290Z,4.27
2019-03-04T23:44:44.826Z,3.70
2019-03-04T23:47:45.994Z,2.37
2019-03-04T23:50:46.857Z,1.80
2019-03-04T23:53:47.586Z,1.60
2019-03-04T23:56:48.335Z,3.77
2019-03-04T23:59:49.203Z,2.43
